sensor_id;sensor_type;location;lat;lon;timestamp;temperature;humidity
20349;DHT22;10332;50.208;18.988;2023-01-09T00:01:25;6.50;95.30
20349;DHT22;10332;50.208;18.988;2023-01-09T00:03:56;6.50;95.80
20349;DHT22;10332;50.208;18.988;2023-01-09T00:06:23;6.50;95.90
20349;DHT22;10332;50.208;18.988;2023-01-09T00:08:51;6.50;95.80
20349;DHT22;10332;50.208;18.988;2023-01-09T00:11:19;6.50;97.40
20349;DHT22;10332;50.208;18.988;2023-01-09T00:13:46;6.40;97.40
20349;DHT22;10332;50.208;18.988;2023-01-09T00:16:14;6.40;96.80
20349;DHT22;10332;50.208;18.988;2023-01-09T00:18:42;6.30;99.20
20349;DHT22;10332;50.208;18.988;2023-01-09T00:21:11;6.30;99.90
20349;DHT22;10332;50.208;18.988;2023-01-09T00:23:39;6.20;99.90
20349;DHT22;10332;50.208;18.988;2023-01-09T00:26:12;6.20;99.90
20349;DHT22;10332;50.208;18.988;2023-01-09T00:28:44;6.20;99.90
20349;DHT22;10332;50.208;18.988;2023-01-09T00:31:14;6.20;99.90
20349;DHT22;10332;50.208;18.988;2023-01-09T00:33:44;6.20;99.90
20349;DHT22;10332;50.208;18.988;2023-01-09T00:36:16;6.20;99.90
20349;DHT22;10332;50.208;18.988;2023-01-09T00:38:43;6.20;99.90
20349;DHT22;10332;50.208;18.988;2023-01-09T00:41:16;6.10;99.90
20349;DHT22;10332;50.208;18.988;2023-01-09T00:43:52;6.10;99.90
20349;DHT22;10332;50.208;18.988;2023-01-09T00:46:33;6.10;99.90
20349;DHT22;10332;50.208;18.988;2023-01-09T00:49:07;6.10;99.90
20349;DHT22;10332;50.208;18.988;2023-01-09T00:51:36;6.10;99.90
20349;DHT22;10332;50.208;18.988;2023-01-09T00:54:05;6.10;99.90
20349;DHT22;10332;50.208;18.988;2023-01-09T00:56:33;6.10;99.90
20349;DHT22;10332;50.208;18.988;2023-01-09T00:59:02;6.10;99.90
20349;DHT22;10332;50.208;18.988;2023-01-09T01:01:30;6.10;99.90
20349;DHT22;10332;50.208;18.988;2023-01-09T01:03:58;6.10;99.90
20349;DHT22;10332;50.208;18.988;2023-01-09T01:06:45;6.00;99.90
20349;DHT22;10332;50.208;18.988;2023-01-09T01:09:31;6.00;99.90
20349;DHT22;10332;50.208;18.988;2023-01-09T01:12:00;6.00;99.90
20349;DHT22;10332;50.208;18.988;2023-01-09T01:14:37;6.00;99.90
20349;DHT22;10332;50.208;18.988;2023-01-09T01:17:06;6.00;99.90
20349;DHT22;10332;50.208;18.988;2023-01-09T01:19:34;6.00;99.90
20349;DHT22;10332;50.208;18.988;2023-01-09T01:22:02;5.90;99.90
20349;DHT22;10332;50.208;18.988;2023-01-09T01:24:29;5.90;99.90
20349;DHT22;10332;50.208;18.988;2023-01-09T01:26:57;5.90;99.90
20349;DHT22;10332;50.208;18.988;2023-01-09T01:29:25;5.90;99.90
20349;DHT22;10332;50.208;18.988;2023-01-09T01:31:54;5.90;99.90
20349;DHT22;10332;50.208;18.988;2023-01-09T01:34:21;5.90;99.90
20349;DHT22;10332;50.208;18.988;2023-01-09T01:36:49;5.90;99.90
20349;DHT22;10332;50.208;18.988;2023-01-09T01:39:16;5.90;99.90
20349;DHT22;10332;50.208;18.988;2023-01-09T01:41:44;5.90;99.90
20349;DHT22;10332;50.208;18.988;2023-01-09T01:53:34;5.70;99.90
20349;DHT22;10332;50.208;18.988;2023-01-09T01:59:28;5.50;99.90
20349;DHT22;10332;50.208;18.988;2023-01-09T02:02:03;5.50;99.90
20349;DHT22;10332;50.208;18.988;2023-01-09T02:04:33;5.40;99.90
20349;DHT22;10332;50.208;18.988;2023-01-09T02:07:08;5.40;99.90
20349;DHT22;10332;50.208;18.988;2023-01-09T02:09:38;5.40;99.90
20349;DHT22;10332;50.208;18.988;2023-01-09T02:12:20;5.40;99.90
20349;DHT22;10332;50.208;18.988;2023-01-09T02:14:58;5.40;99.90
20349;DHT22;10332;50.208;18.988;2023-01-09T02:35:18;5.30;99.90
20349;DHT22;10332;50.208;18.988;2023-01-09T02:38:03;5.40;99.90
20349;DHT22;10332;50.208;18.988;2023-01-09T02:41:03;5.40;99.90
20349;DHT22;10332;50.208;18.988;2023-01-09T02:43:39;5.40;99.90
20349;DHT22;10332;50.208;18.988;2023-01-09T02:46:18;5.40;99.90
20349;DHT22;10332;50.208;18.988;2023-01-09T02:48:52;5.40;99.90
20349;DHT22;10332;50.208;18.988;2023-01-09T02:51:50;5.40;99.90
20349;DHT22;10332;50.208;18.988;2023-01-09T02:54:38;5.30;99.90
20349;DHT22;10332;50.208;18.988;2023-01-09T03:03:08;5.20;99.90
20349;DHT22;10332;50.208;18.988;2023-01-09T03:05:42;5.20;99.90
20349;DHT22;10332;50.208;18.988;2023-01-09T03:08:20;5.10;99.90
20349;DHT22;10332;50.208;18.988;2023-01-09T03:11:02;5.10;99.90
20349;DHT22;10332;50.208;18.988;2023-01-09T03:13:40;5.00;99.90
20349;DHT22;10332;50.208;18.988;2023-01-09T03:16:16;5.00;99.90
20349;DHT22;10332;50.208;18.988;2023-01-09T03:18:48;5.00;99.90
20349;DHT22;10332;50.208;18.988;2023-01-09T03:21:18;4.90;99.90
20349;DHT22;10332;50.208;18.988;2023-01-09T03:23:52;4.90;99.90
20349;DHT22;10332;50.208;18.988;2023-01-09T03:26:25;4.90;99.90
20349;DHT22;10332;50.208;18.988;2023-01-09T03:28:55;4.90;99.90
20349;DHT22;10332;50.208;18.988;2023-01-09T03:31:24;5.00;99.90
20349;DHT22;10332;50.208;18.988;2023-01-09T03:33:51;5.00;99.90
20349;DHT22;10332;50.208;18.988;2023-01-09T03:36:20;4.90;99.90
20349;DHT22;10332;50.208;18.988;2023-01-09T03:38:48;4.90;99.90
20349;DHT22;10332;50.208;18.988;2023-01-09T03:41:18;4.80;99.90
20349;DHT22;10332;50.208;18.988;2023-01-09T03:43:45;4.80;99.90
20349;DHT22;10332;50.208;18.988;2023-01-09T03:46:15;4.80;99.90
20349;DHT22;10332;50.208;18.988;2023-01-09T03:48:43;4.70;99.90
20349;DHT22;10332;50.208;18.988;2023-01-09T03:51:11;4.70;99.90
20349;DHT22;10332;50.208;18.988;2023-01-09T03:53:38;4.60;99.90
20349;DHT22;10332;50.208;18.988;2023-01-09T03:56:06;4.70;99.90
20349;DHT22;10332;50.208;18.988;2023-01-09T03:58:33;4.60;99.90
20349;DHT22;10332;50.208;18.988;2023-01-09T04:01:03;4.60;99.90
20349;DHT22;10332;50.208;18.988;2023-01-09T04:03:31;4.60;99.90
20349;DHT22;10332;50.208;18.988;2023-01-09T04:06:00;4.60;99.90
20349;DHT22;10332;50.208;18.988;2023-01-09T04:08:27;4.60;99.90
20349;DHT22;10332;50.208;18.988;2023-01-09T04:10:55;4.60;99.90
20349;DHT22;10332;50.208;18.988;2023-01-09T04:13:22;4.60;99.90
20349;DHT22;10332;50.208;18.988;2023-01-09T04:15:50;4.60;99.90
20349;DHT22;10332;50.208;18.988;2023-01-09T04:18:17;4.70;99.90
20349;DHT22;10332;50.208;18.988;2023-01-09T04:20:48;4.60;99.90
20349;DHT22;10332;50.208;18.988;2023-01-09T04:23:15;4.60;99.90
20349;DHT22;10332;50.208;18.988;2023-01-09T04:25:43;4.60;99.90
20349;DHT22;10332;50.208;18.988;2023-01-09T04:28:11;4.70;99.90
20349;DHT22;10332;50.208;18.988;2023-01-09T04:30:39;4.70;99.90
20349;DHT22;10332;50.208;18.988;2023-01-09T04:33:06;4.70;99.90
20349;DHT22;10332;50.208;18.988;2023-01-09T04:35:34;4.80;99.90
20349;DHT22;10332;50.208;18.988;2023-01-09T04:38:01;4.80;99.90
20349;DHT22;10332;50.208;18.988;2023-01-09T04:40:29;4.90;99.90
20349;DHT22;10332;50.208;18.988;2023-01-09T04:42:56;4.90;99.90
20349;DHT22;10332;50.208;18.988;2023-01-09T04:45:23;4.90;99.90
20349;DHT22;10332;50.208;18.988;2023-01-09T04:47:51;4.90;99.90
20349;DHT22;10332;50.208;18.988;2023-01-09T04:50:18;4.90;99.90
20349;DHT22;10332;50.208;18.988;2023-01-09T04:52:46;4.90;99.90
20349;DHT22;10332;50.208;18.988;2023-01-09T04:55:13;5.00;99.90
20349;DHT22;10332;50.208;18.988;2023-01-09T04:57:40;5.10;99.90
20349;DHT22;10332;50.208;18.988;2023-01-09T05:00:08;5.10;99.90
20349;DHT22;10332;50.208;18.988;2023-01-09T05:02:38;5.20;99.90
20349;DHT22;10332;50.208;18.988;2023-01-09T05:05:08;5.20;99.90
20349;DHT22;10332;50.208;18.988;2023-01-09T05:07:38;5.20;99.90
20349;DHT22;10332;50.208;18.988;2023-01-09T05:10:06;5.20;99.90
20349;DHT22;10332;50.208;18.988;2023-01-09T05:12:35;5.30;99.90
20349;DHT22;10332;50.208;18.988;2023-01-09T05:15:04;5.40;99.90
20349;DHT22;10332;50.208;18.988;2023-01-09T05:17:32;5.40;99.90
20349;DHT22;10332;50.208;18.988;2023-01-09T05:20:00;5.50;99.90
20349;DHT22;10332;50.208;18.988;2023-01-09T05:22:28;5.60;99.90
20349;DHT22;10332;50.208;18.988;2023-01-09T05:24:56;5.60;99.90
20349;DHT22;10332;50.208;18.988;2023-01-09T05:27:26;5.60;99.90
20349;DHT22;10332;50.208;18.988;2023-01-09T05:29:54;5.60;99.90
20349;DHT22;10332;50.208;18.988;2023-01-09T05:32:21;5.60;99.90
20349;DHT22;10332;50.208;18.988;2023-01-09T05:34:49;5.60;99.90
20349;DHT22;10332;50.208;18.988;2023-01-09T05:37:16;5.60;99.90
20349;DHT22;10332;50.208;18.988;2023-01-09T05:39:44;5.60;99.90
20349;DHT22;10332;50.208;18.988;2023-01-09T05:42:11;5.70;99.90
20349;DHT22;10332;50.208;18.988;2023-01-09T05:44:38;5.70;99.90
20349;DHT22;10332;50.208;18.988;2023-01-09T05:47:06;5.80;99.90
20349;DHT22;10332;50.208;18.988;2023-01-09T05:49:33;5.80;99.90
20349;DHT22;10332;50.208;18.988;2023-01-09T05:52:00;5.90;99.90
20349;DHT22;10332;50.208;18.988;2023-01-09T05:54:28;5.90;99.90
20349;DHT22;10332;50.208;18.988;2023-01-09T05:56:56;6.00;99.90
20349;DHT22;10332;50.208;18.988;2023-01-09T05:59:24;6.00;99.90
20349;DHT22;10332;50.208;18.988;2023-01-09T06:01:51;6.10;99.90
20349;DHT22;10332;50.208;18.988;2023-01-09T06:04:20;6.10;99.90
20349;DHT22;10332;50.208;18.988;2023-01-09T06:06:48;6.20;99.90
20349;DHT22;10332;50.208;18.988;2023-01-09T06:09:15;6.20;99.90
20349;DHT22;10332;50.208;18.988;2023-01-09T06:11:42;6.30;99.90
20349;DHT22;10332;50.208;18.988;2023-01-09T06:14:10;6.40;99.90
20349;DHT22;10332;50.208;18.988;2023-01-09T06:16:37;6.40;99.90
20349;DHT22;10332;50.208;18.988;2023-01-09T06:19:05;6.50;99.90
20349;DHT22;10332;50.208;18.988;2023-01-09T06:21:33;6.60;99.90
20349;DHT22;10332;50.208;18.988;2023-01-09T06:24:00;6.60;99.90
20349;DHT22;10332;50.208;18.988;2023-01-09T06:26:28;6.70;99.60
20349;DHT22;10332;50.208;18.988;2023-01-09T06:28:56;6.70;98.50
20349;DHT22;10332;50.208;18.988;2023-01-09T06:31:23;6.70;97.50
20349;DHT22;10332;50.208;18.988;2023-01-09T06:33:52;6.80;96.70
20349;DHT22;10332;50.208;18.988;2023-01-09T06:36:19;6.70;95.90
20349;DHT22;10332;50.208;18.988;2023-01-09T06:38:48;6.80;95.50
20349;DHT22;10332;50.208;18.988;2023-01-09T06:41:16;6.80;95.50
20349;DHT22;10332;50.208;18.988;2023-01-09T06:43:44;6.80;95.50
20349;DHT22;10332;50.208;18.988;2023-01-09T06:46:11;6.90;95.00
20349;DHT22;10332;50.208;18.988;2023-01-09T06:48:39;6.80;95.30
20349;DHT22;10332;50.208;18.988;2023-01-09T06:51:06;6.80;95.60
20349;DHT22;10332;50.208;18.988;2023-01-09T06:53:34;6.80;96.20
20349;DHT22;10332;50.208;18.988;2023-01-09T06:56:01;6.70;96.80
20349;DHT22;10332;50.208;18.988;2023-01-09T06:58:29;6.70;97.70
20349;DHT22;10332;50.208;18.988;2023-01-09T07:01:00;6.70;99.30
20349;DHT22;10332;50.208;18.988;2023-01-09T07:03:27;6.60;99.90
20349;DHT22;10332;50.208;18.988;2023-01-09T07:05:55;6.60;99.90
20349;DHT22;10332;50.208;18.988;2023-01-09T07:08:23;6.50;99.90
20349;DHT22;10332;50.208;18.988;2023-01-09T07:10:51;6.50;99.90
20349;DHT22;10332;50.208;18.988;2023-01-09T07:13:18;6.50;99.90
20349;DHT22;10332;50.208;18.988;2023-01-09T07:15:46;6.50;99.90
20349;DHT22;10332;50.208;18.988;2023-01-09T07:18:13;6.50;99.90
20349;DHT22;10332;50.208;18.988;2023-01-09T07:20:41;6.60;99.90
20349;DHT22;10332;50.208;18.988;2023-01-09T07:23:12;6.60;99.90
20349;DHT22;10332;50.208;18.988;2023-01-09T07:25:44;6.70;99.90
20349;DHT22;10332;50.208;18.988;2023-01-09T07:28:11;6.70;99.90
20349;DHT22;10332;50.208;18.988;2023-01-09T07:30:39;6.70;99.90
20349;DHT22;10332;50.208;18.988;2023-01-09T07:33:06;6.70;99.90
20349;DHT22;10332;50.208;18.988;2023-01-09T07:35:34;6.80;99.90
20349;DHT22;10332;50.208;18.988;2023-01-09T07:38:02;6.80;99.90
20349;DHT22;10332;50.208;18.988;2023-01-09T07:40:29;6.80;99.90
20349;DHT22;10332;50.208;18.988;2023-01-09T07:42:57;6.90;99.90
20349;DHT22;10332;50.208;18.988;2023-01-09T07:45:24;6.90;99.90
20349;DHT22;10332;50.208;18.988;2023-01-09T07:47:52;7.00;99.90
20349;DHT22;10332;50.208;18.988;2023-01-09T07:50:19;7.10;99.90
20349;DHT22;10332;50.208;18.988;2023-01-09T07:52:47;7.10;99.90
20349;DHT22;10332;50.208;18.988;2023-01-09T07:55:14;7.10;99.90
20349;DHT22;10332;50.208;18.988;2023-01-09T07:57:47;7.10;99.90
20349;DHT22;10332;50.208;18.988;2023-01-09T08:00:16;7.10;99.90
20349;DHT22;10332;50.208;18.988;2023-01-09T08:02:45;7.20;99.90
20349;DHT22;10332;50.208;18.988;2023-01-09T08:05:16;7.30;99.90
20349;DHT22;10332;50.208;18.988;2023-01-09T08:07:45;7.30;99.90
20349;DHT22;10332;50.208;18.988;2023-01-09T08:10:12;7.30;99.90
20349;DHT22;10332;50.208;18.988;2023-01-09T08:12:42;7.40;99.90
20349;DHT22;10332;50.208;18.988;2023-01-09T08:15:10;7.40;99.90
20349;DHT22;10332;50.208;18.988;2023-01-09T08:17:41;7.50;99.90
20349;DHT22;10332;50.208;18.988;2023-01-09T08:20:10;7.60;99.90
20349;DHT22;10332;50.208;18.988;2023-01-09T08:22:43;7.70;99.90
20349;DHT22;10332;50.208;18.988;2023-01-09T08:25:17;7.80;99.90
20349;DHT22;10332;50.208;18.988;2023-01-09T08:27:44;8.00;99.90
20349;DHT22;10332;50.208;18.988;2023-01-09T08:30:13;8.10;99.90
20349;DHT22;10332;50.208;18.988;2023-01-09T08:32:42;8.20;99.90
20349;DHT22;10332;50.208;18.988;2023-01-09T08:35:09;8.30;99.90
20349;DHT22;10332;50.208;18.988;2023-01-09T08:37:38;8.30;99.90
20349;DHT22;10332;50.208;18.988;2023-01-09T08:40:05;8.40;99.90
20349;DHT22;10332;50.208;18.988;2023-01-09T08:42:34;8.40;99.90
20349;DHT22;10332;50.208;18.988;2023-01-09T08:45:20;8.40;99.90
20349;DHT22;10332;50.208;18.988;2023-01-09T08:48:06;8.40;99.90
20349;DHT22;10332;50.208;18.988;2023-01-09T08:50:34;8.40;99.90
20349;DHT22;10332;50.208;18.988;2023-01-09T08:53:02;8.40;99.90
20349;DHT22;10332;50.208;18.988;2023-01-09T08:55:29;8.40;99.90
20349;DHT22;10332;50.208;18.988;2023-01-09T08:57:57;8.40;99.70
20349;DHT22;10332;50.208;18.988;2023-01-09T09:00:24;8.40;99.90
20349;DHT22;10332;50.208;18.988;2023-01-09T09:02:54;8.40;99.80
20349;DHT22;10332;50.208;18.988;2023-01-09T09:05:24;8.40;99.90
20349;DHT22;10332;50.208;18.988;2023-01-09T09:07:54;8.40;99.30
20349;DHT22;10332;50.208;18.988;2023-01-09T09:10:23;8.40;99.20
20349;DHT22;10332;50.208;18.988;2023-01-09T09:12:54;8.40;99.90
20349;DHT22;10332;50.208;18.988;2023-01-09T09:15:25;8.50;99.90
20349;DHT22;10332;50.208;18.988;2023-01-09T09:17:56;8.60;99.90
20349;DHT22;10332;50.208;18.988;2023-01-09T09:20:27;8.60;99.10
20349;DHT22;10332;50.208;18.988;2023-01-09T09:22:57;8.60;98.80
20349;DHT22;10332;50.208;18.988;2023-01-09T09:25:25;8.60;98.50
20349;DHT22;10332;50.208;18.988;2023-01-09T09:27:54;8.70;99.00
20349;DHT22;10332;50.208;18.988;2023-01-09T09:30:27;8.70;99.00
20349;DHT22;10332;50.208;18.988;2023-01-09T09:32:55;8.70;99.40
20349;DHT22;10332;50.208;18.988;2023-01-09T09:35:22;8.70;99.90
20349;DHT22;10332;50.208;18.988;2023-01-09T09:37:58;8.70;99.90
20349;DHT22;10332;50.208;18.988;2023-01-09T09:40:37;8.80;99.90
20349;DHT22;10332;50.208;18.988;2023-01-09T09:50:09;9.00;99.90
20349;DHT22;10332;50.208;18.988;2023-01-09T09:55:26;9.10;99.90
20349;DHT22;10332;50.208;18.988;2023-01-09T09:58:01;9.20;99.90
20349;DHT22;10332;50.208;18.988;2023-01-09T10:00:57;9.30;99.90
20349;DHT22;10332;50.208;18.988;2023-01-09T10:03:40;9.40;99.90
20349;DHT22;10332;50.208;18.988;2023-01-09T10:06:28;9.40;99.90
20349;DHT22;10332;50.208;18.988;2023-01-09T10:09:02;9.50;99.90
20349;DHT22;10332;50.208;18.988;2023-01-09T10:15:13;9.70;99.90
20349;DHT22;10332;50.208;18.988;2023-01-09T10:26:11;10.20;97.50
20349;DHT22;10332;50.208;18.988;2023-01-09T10:29:12;10.20;96.20
20349;DHT22;10332;50.208;18.988;2023-01-09T10:38:09;10.30;96.30
20349;DHT22;10332;50.208;18.988;2023-01-09T10:40:54;10.30;97.20
20349;DHT22;10332;50.208;18.988;2023-01-09T10:43:36;10.30;96.00
20349;DHT22;10332;50.208;18.988;2023-01-09T10:46:27;10.40;96.40
20349;DHT22;10332;50.208;18.988;2023-01-09T10:49:11;10.60;95.20
20349;DHT22;10332;50.208;18.988;2023-01-09T10:51:46;10.70;93.90
20349;DHT22;10332;50.208;18.988;2023-01-09T10:54:20;10.70;94.20
20349;DHT22;10332;50.208;18.988;2023-01-09T10:56:56;10.80;93.80
20349;DHT22;10332;50.208;18.988;2023-01-09T10:59:39;10.80;94.40
20349;DHT22;10332;50.208;18.988;2023-01-09T11:02:35;10.70;95.20
20349;DHT22;10332;50.208;18.988;2023-01-09T11:05:03;10.60;96.20
20349;DHT22;10332;50.208;18.988;2023-01-09T11:07:35;10.50;97.50
20349;DHT22;10332;50.208;18.988;2023-01-09T11:10:07;10.50;98.10
20349;DHT22;10332;50.208;18.988;2023-01-09T11:12:38;10.50;98.80
20349;DHT22;10332;50.208;18.988;2023-01-09T11:17:44;10.40;99.90
20349;DHT22;10332;50.208;18.988;2023-01-09T11:20:25;10.40;99.90
20349;DHT22;10332;50.208;18.988;2023-01-09T11:22:57;10.40;99.90
20349;DHT22;10332;50.208;18.988;2023-01-09T11:25:27;10.40;99.90
20349;DHT22;10332;50.208;18.988;2023-01-09T11:30:36;10.30;99.90
20349;DHT22;10332;50.208;18.988;2023-01-09T11:33:20;10.20;99.90
20349;DHT22;10332;50.208;18.988;2023-01-09T11:38:27;10.20;99.90
20349;DHT22;10332;50.208;18.988;2023-01-09T11:40:59;10.10;99.90
20349;DHT22;10332;50.208;18.988;2023-01-09T11:43:37;10.20;99.90
20349;DHT22;10332;50.208;18.988;2023-01-09T11:46:08;10.20;99.90
20349;DHT22;10332;50.208;18.988;2023-01-09T11:48:53;10.10;99.90
20349;DHT22;10332;50.208;18.988;2023-01-09T11:51:33;10.00;99.90
20349;DHT22;10332;50.208;18.988;2023-01-09T11:56:50;9.80;99.90
20349;DHT22;10332;50.208;18.988;2023-01-09T11:59:20;9.70;99.90
20349;DHT22;10332;50.208;18.988;2023-01-09T12:08:11;9.50;99.90
20349;DHT22;10332;50.208;18.988;2023-01-09T12:20:02;9.40;99.90
20349;DHT22;10332;50.208;18.988;2023-01-09T12:23:06;9.40;99.90
20349;DHT22;10332;50.208;18.988;2023-01-09T12:29:14;9.40;99.90
20349;DHT22;10332;50.208;18.988;2023-01-09T12:49:29;9.60;99.90
20349;DHT22;10332;50.208;18.988;2023-01-09T12:52:08;9.50;99.90
20349;DHT22;10332;50.208;18.988;2023-01-09T12:55:13;9.50;99.90
20349;DHT22;10332;50.208;18.988;2023-01-09T12:57:49;9.60;99.90
20349;DHT22;10332;50.208;18.988;2023-01-09T13:03:38;9.60;99.90
20349;DHT22;10332;50.208;18.988;2023-01-09T13:06:31;9.80;99.90
20349;DHT22;10332;50.208;18.988;2023-01-09T13:09:37;9.70;99.90
20349;DHT22;10332;50.208;18.988;2023-01-09T13:12:15;9.70;99.90
20349;DHT22;10332;50.208;18.988;2023-01-09T13:15:06;9.70;99.90
20349;DHT22;10332;50.208;18.988;2023-01-09T13:18:15;9.60;99.90
20349;DHT22;10332;50.208;18.988;2023-01-09T13:20:52;9.60;99.90
20349;DHT22;10332;50.208;18.988;2023-01-09T13:26:34;9.60;99.90
20349;DHT22;10332;50.208;18.988;2023-01-09T13:29:17;9.60;99.90
20349;DHT22;10332;50.208;18.988;2023-01-09T13:31:57;9.50;99.90
20349;DHT22;10332;50.208;18.988;2023-01-09T13:34:28;9.50;99.90
20349;DHT22;10332;50.208;18.988;2023-01-09T13:36:58;9.50;99.90
20349;DHT22;10332;50.208;18.988;2023-01-09T13:39:30;9.50;99.90
20349;DHT22;10332;50.208;18.988;2023-01-09T13:42:03;9.50;99.90
20349;DHT22;10332;50.208;18.988;2023-01-09T13:44:55;9.50;99.90
20349;DHT22;10332;50.208;18.988;2023-01-09T13:47:37;9.50;99.90
20349;DHT22;10332;50.208;18.988;2023-01-09T13:52:48;9.50;99.90
20349;DHT22;10332;50.208;18.988;2023-01-09T14:05:13;9.60;99.90
20349;DHT22;10332;50.208;18.988;2023-01-09T14:07:43;9.70;99.90
20349;DHT22;10332;50.208;18.988;2023-01-09T14:10:47;9.70;99.90
20349;DHT22;10332;50.208;18.988;2023-01-09T14:13:32;9.70;99.90
20349;DHT22;10332;50.208;18.988;2023-01-09T14:16:24;9.80;99.90
20349;DHT22;10332;50.208;18.988;2023-01-09T14:22:01;9.70;99.90
20349;DHT22;10332;50.208;18.988;2023-01-09T14:24:39;9.70;99.90
20349;DHT22;10332;50.208;18.988;2023-01-09T14:28:02;9.60;99.90
20349;DHT22;10332;50.208;18.988;2023-01-09T14:30:34;9.60;99.90
20349;DHT22;10332;50.208;18.988;2023-01-09T14:39:03;9.40;99.90
20349;DHT22;10332;50.208;18.988;2023-01-09T14:41:44;9.40;99.90
20349;DHT22;10332;50.208;18.988;2023-01-09T14:44:29;9.40;99.90
20349;DHT22;10332;50.208;18.988;2023-01-09T14:47:36;9.40;99.90
20349;DHT22;10332;50.208;18.988;2023-01-09T14:50:36;9.40;99.90
20349;DHT22;10332;50.208;18.988;2023-01-09T14:53:19;9.30;99.90
20349;DHT22;10332;50.208;18.988;2023-01-09T14:55:54;9.30;99.90
20349;DHT22;10332;50.208;18.988;2023-01-09T14:58:34;9.30;99.90
20349;DHT22;10332;50.208;18.988;2023-01-09T15:03:50;9.20;99.90
20349;DHT22;10332;50.208;18.988;2023-01-09T15:06:30;9.20;99.90
20349;DHT22;10332;50.208;18.988;2023-01-09T15:09:06;9.10;99.90
20349;DHT22;10332;50.208;18.988;2023-01-09T15:11:42;9.10;99.90
20349;DHT22;10332;50.208;18.988;2023-01-09T15:14:38;9.10;99.90
20349;DHT22;10332;50.208;18.988;2023-01-09T15:17:25;9.10;99.90
20349;DHT22;10332;50.208;18.988;2023-01-09T15:19:59;9.10;99.90
20349;DHT22;10332;50.208;18.988;2023-01-09T15:22:32;9.00;99.90
20349;DHT22;10332;50.208;18.988;2023-01-09T15:28:26;8.90;99.90
20349;DHT22;10332;50.208;18.988;2023-01-09T15:31:13;8.90;99.90
20349;DHT22;10332;50.208;18.988;2023-01-09T15:33:45;8.90;99.90
20349;DHT22;10332;50.208;18.988;2023-01-09T15:36:16;8.90;99.90
20349;DHT22;10332;50.208;18.988;2023-01-09T15:38:48;8.80;99.90
20349;DHT22;10332;50.208;18.988;2023-01-09T15:41:28;8.90;99.90
20349;DHT22;10332;50.208;18.988;2023-01-09T15:44:26;8.90;99.90
20349;DHT22;10332;50.208;18.988;2023-01-09T15:46:58;8.90;99.90
20349;DHT22;10332;50.208;18.988;2023-01-09T15:49:28;8.90;99.90
20349;DHT22;10332;50.208;18.988;2023-01-09T15:51:55;8.90;99.90
20349;DHT22;10332;50.208;18.988;2023-01-09T15:54:29;8.90;99.90
20349;DHT22;10332;50.208;18.988;2023-01-09T15:59:56;8.90;99.90
20349;DHT22;10332;50.208;18.988;2023-01-09T16:02:44;8.80;99.90
20349;DHT22;10332;50.208;18.988;2023-01-09T16:05:32;8.80;99.90
20349;DHT22;10332;50.208;18.988;2023-01-09T16:08:01;8.80;99.90
20349;DHT22;10332;50.208;18.988;2023-01-09T16:10:33;8.80;99.90
20349;DHT22;10332;50.208;18.988;2023-01-09T16:13:02;8.80;99.90
20349;DHT22;10332;50.208;18.988;2023-01-09T16:15:32;8.80;99.90
20349;DHT22;10332;50.208;18.988;2023-01-09T16:20:41;8.80;99.90
20349;DHT22;10332;50.208;18.988;2023-01-09T16:28:30;8.80;99.90
20349;DHT22;10332;50.208;18.988;2023-01-09T16:31:04;8.80;99.90
20349;DHT22;10332;50.208;18.988;2023-01-09T16:34:05;8.80;99.90
20349;DHT22;10332;50.208;18.988;2023-01-09T16:36:34;8.80;99.90
20349;DHT22;10332;50.208;18.988;2023-01-09T16:39:03;8.80;99.90
20349;DHT22;10332;50.208;18.988;2023-01-09T16:41:30;8.80;99.90
20349;DHT22;10332;50.208;18.988;2023-01-09T16:44:16;8.80;99.90
20349;DHT22;10332;50.208;18.988;2023-01-09T16:46:45;8.80;99.90
20349;DHT22;10332;50.208;18.988;2023-01-09T16:49:16;8.80;99.90
20349;DHT22;10332;50.208;18.988;2023-01-09T16:51:50;8.80;99.90
20349;DHT22;10332;50.208;18.988;2023-01-09T16:54:18;8.80;99.90
20349;DHT22;10332;50.208;18.988;2023-01-09T16:56:48;8.80;99.90
20349;DHT22;10332;50.208;18.988;2023-01-09T16:59:20;8.70;99.90
20349;DHT22;10332;50.208;18.988;2023-01-09T17:01:53;8.80;99.90
20349;DHT22;10332;50.208;18.988;2023-01-09T17:04:21;8.80;99.90
20349;DHT22;10332;50.208;18.988;2023-01-09T17:06:51;8.80;99.90
20349;DHT22;10332;50.208;18.988;2023-01-09T17:09:19;8.80;99.90
20349;DHT22;10332;50.208;18.988;2023-01-09T17:11:51;8.70;99.90
20349;DHT22;10332;50.208;18.988;2023-01-09T17:14:19;8.70;99.90
20349;DHT22;10332;50.208;18.988;2023-01-09T17:16:46;8.70;99.90
20349;DHT22;10332;50.208;18.988;2023-01-09T17:19:17;8.80;99.90
20349;DHT22;10332;50.208;18.988;2023-01-09T17:21:46;8.80;99.90
20349;DHT22;10332;50.208;18.988;2023-01-09T17:24:14;8.80;99.90
20349;DHT22;10332;50.208;18.988;2023-01-09T17:27:00;8.70;99.90
20349;DHT22;10332;50.208;18.988;2023-01-09T17:29:47;8.70;99.90
20349;DHT22;10332;50.208;18.988;2023-01-09T17:32:16;8.70;99.90
20349;DHT22;10332;50.208;18.988;2023-01-09T17:34:44;8.60;99.90
20349;DHT22;10332;50.208;18.988;2023-01-09T17:37:13;8.70;99.90
20349;DHT22;10332;50.208;18.988;2023-01-09T17:39:43;8.70;99.90
20349;DHT22;10332;50.208;18.988;2023-01-09T17:42:11;8.70;99.90
20349;DHT22;10332;50.208;18.988;2023-01-09T17:44:39;8.70;99.90
20349;DHT22;10332;50.208;18.988;2023-01-09T17:47:14;8.70;99.90
20349;DHT22;10332;50.208;18.988;2023-01-09T17:49:42;8.70;99.90
20349;DHT22;10332;50.208;18.988;2023-01-09T17:52:09;8.80;99.90
20349;DHT22;10332;50.208;18.988;2023-01-09T17:54:37;8.80;99.90
20349;DHT22;10332;50.208;18.988;2023-01-09T17:57:06;8.80;99.90
20349;DHT22;10332;50.208;18.988;2023-01-09T17:59:35;8.70;99.90
20349;DHT22;10332;50.208;18.988;2023-01-09T18:02:03;8.70;99.90
20349;DHT22;10332;50.208;18.988;2023-01-09T18:04:31;8.70;99.90
20349;DHT22;10332;50.208;18.988;2023-01-09T18:06:58;8.70;99.90
20349;DHT22;10332;50.208;18.988;2023-01-09T18:09:25;8.70;99.90
20349;DHT22;10332;50.208;18.988;2023-01-09T18:11:53;8.70;99.90
20349;DHT22;10332;50.208;18.988;2023-01-09T18:14:20;8.70;99.90
20349;DHT22;10332;50.208;18.988;2023-01-09T18:16:48;8.70;99.90
20349;DHT22;10332;50.208;18.988;2023-01-09T18:19:16;8.80;99.90
20349;DHT22;10332;50.208;18.988;2023-01-09T18:21:43;8.80;99.90
20349;DHT22;10332;50.208;18.988;2023-01-09T18:24:12;8.90;99.90
20349;DHT22;10332;50.208;18.988;2023-01-09T18:26:40;8.90;99.90
20349;DHT22;10332;50.208;18.988;2023-01-09T18:29:08;8.90;99.90
20349;DHT22;10332;50.208;18.988;2023-01-09T18:31:37;8.80;99.90
20349;DHT22;10332;50.208;18.988;2023-01-09T18:34:05;8.80;99.90
20349;DHT22;10332;50.208;18.988;2023-01-09T18:36:33;8.80;99.90
20349;DHT22;10332;50.208;18.988;2023-01-09T18:39:03;8.70;99.90
20349;DHT22;10332;50.208;18.988;2023-01-09T18:41:31;8.70;99.90